Time;durP1;ratioP1;P1;durP2;ratioP2;P2;SDS_P1;SDS_P2;PMS_P1;PMS_P2;Temp;Humidity;BMP_temperature;BMP_pressure;BME280_temperature;BME280_humidity;BME280_pressure;Samples;Min_cycle;Max_cycle;Signal;HPM_P1;HPM_P2
2022/10/31 00:02:07;;;;;;;4.87;4.40;;;13.70;99.90;;;;;;4996770;28;20204;-78
2022/10/31 00:04:33;;;;;;;6.90;4.67;;;13.00;99.90;;;;;;4994342;28;20194;-78
2022/10/31 00:06:59;;;;;;;6.97;4.37;;;12.60;99.90;;;;;;4999372;28;20183;-78
2022/10/31 00:09:24;;;;;;;10.23;4.90;;;13.40;99.90;;;;;;4994507;28;20246;-78
2022/10/31 00:11:50;;;;;;;4.80;3.97;;;13.10;99.90;;;;;;5001809;28;20191;-77
2022/10/31 00:14:15;;;;;;;4.93;4.13;;;13.20;99.90;;;;;;4996825;28;20189;-78
2022/10/31 00:16:41;;;;;;;6.70;4.60;;;13.50;99.90;;;;;;4995523;28;20684;-77
2022/10/31 00:19:07;;;;;;;6.63;4.35;;;13.20;99.90;;;;;;4982522;28;20237;-78
2022/10/31 00:21:34;;;;;;;5.80;4.70;;;12.70;99.90;;;;;;4990339;28;20223;-78
2022/10/31 00:24:00;;;;;;;5.43;4.20;;;12.90;99.90;;;;;;4991468;28;20187;-78
2022/10/31 00:26:30;;;;;;;8.77;5.17;;;12.80;99.90;;;;;;4989286;28;20188;-78
2022/10/31 00:28:57;;;;;;;5.05;4.55;;;13.20;99.90;;;;;;4996362;28;20823;-78
2022/10/31 00:31:22;;;;;;;8.50;4.30;;;13.10;99.90;;;;;;4992156;28;20191;-78
2022/10/31 00:33:48;;;;;;;5.50;4.43;;;12.10;99.90;;;;;;4991498;28;20300;-78
2022/10/31 00:36:16;;;;;;;6.83;4.97;;;12.70;99.90;;;;;;4996491;28;20647;-78
2022/10/31 00:38:42;;;;;;;6.82;4.47;;;12.50;99.90;;;;;;4996122;28;20747;-78
2022/10/31 00:41:09;;;;;;;7.13;4.28;;;12.60;99.90;;;;;;5002734;28;20257;-77
2022/10/31 00:43:35;;;;;;;4.90;4.30;;;13.00;99.90;;;;;;4994909;28;20274;-77
2022/10/31 00:46:00;;;;;;;6.93;4.60;;;12.60;99.90;;;;;;5003450;28;20232;-78
2022/10/31 00:48:26;;;;;;;4.87;3.90;;;12.60;99.90;;;;;;4989451;28;20207;-78
2022/10/31 00:50:51;;;;;;;6.87;4.47;;;12.60;99.90;;;;;;4981053;28;20182;-78
2022/10/31 00:53:17;;;;;;;7.27;3.97;;;12.50;99.90;;;;;;4995329;28;20206;-78
2022/10/31 00:55:42;;;;;;;6.87;4.40;;;12.90;99.90;;;;;;4998865;28;20195;-78
2022/10/31 00:58:08;;;;;;;6.67;4.23;;;12.70;99.90;;;;;;4990946;28;20202;-78
2022/10/31 01:00:34;;;;;;;4.20;3.80;;;12.70;99.90;;;;;;4999583;28;20214;-78
2022/10/31 01:02:59;;;;;;;5.03;4.10;;;12.30;99.90;;;;;;5000655;28;20190;-78
2022/10/31 01:05:25;;;;;;;7.67;4.33;;;12.60;99.90;;;;;;4985077;28;20187;-78
2022/10/31 01:07:50;;;;;;;8.60;4.73;;;12.60;99.90;;;;;;4991046;28;20185;-78
2022/10/31 01:10:17;;;;;;;6.60;5.27;;;12.80;99.90;;;;;;4990611;28;20623;-78
2022/10/31 01:12:45;;;;;;;5.30;4.22;;;12.40;99.90;;;;;;5002114;28;20179;-78
2022/10/31 01:15:14;;;;;;;5.15;4.65;;;12.70;99.90;;;;;;4989085;28;20396;-78
2022/10/31 01:17:40;;;;;;;6.38;4.68;;;12.30;99.90;;;;;;5000260;28;20277;-77
2022/10/31 01:20:07;;;;;;;7.18;4.32;;;12.70;99.90;;;;;;4993889;28;20239;-77
2022/10/31 01:22:33;;;;;;;6.60;4.68;;;12.40;99.90;;;;;;4993775;28;20253;-76
2022/10/31 01:24:59;;;;;;;6.43;4.72;;;12.50;99.90;;;;;;4984612;28;20175;-77
2022/10/31 01:27:25;;;;;;;5.40;4.43;;;12.20;99.90;;;;;;4993346;28;20260;-77
2022/10/31 01:29:51;;;;;;;6.03;4.13;;;12.10;99.90;;;;;;4996096;28;20455;-77
2022/10/31 01:32:16;;;;;;;7.07;4.90;;;12.10;99.90;;;;;;5001041;28;20251;-77
2022/10/31 01:34:42;;;;;;;4.73;4.23;;;12.20;99.90;;;;;;4994822;28;20636;-77
2022/10/31 01:37:07;;;;;;;5.50;4.77;;;12.30;99.90;;;;;;5005171;28;20232;-77
2022/10/31 01:39:33;;;;;;;5.33;4.40;;;12.10;99.90;;;;;;4994491;28;20230;-77
2022/10/31 01:41:58;;;;;;;10.27;5.50;;;12.00;99.90;;;;;;5002032;28;20182;-77
2022/10/31 01:44:24;;;;;;;5.40;4.30;;;12.20;99.90;;;;;;5002667;28;20199;-77
2022/10/31 01:47:13;;;;;;;9.80;4.67;;;12.10;99.90;;;;;;4994409;28;20218;-77
2022/10/31 01:49:48;;;;;;;6.65;4.68;;;11.90;99.90;;;;;;4989432;28;20532;-77
2022/10/31 01:52:17;;;;;;;5.78;4.70;;;12.00;99.90;;;;;;4991111;28;20189;-77
2022/10/31 01:54:48;;;;;;;5.68;4.80;;;12.40;99.90;;;;;;4992411;28;20201;-77
2022/10/31 01:57:15;;;;;;;4.82;4.32;;;11.90;99.90;;;;;;4979422;28;20189;-76
2022/10/31 01:59:47;;;;;;;5.78;4.28;;;12.00;99.90;;;;;;4998962;28;20256;-77
2022/10/31 02:02:13;;;;;;;8.05;4.00;;;12.30;99.90;;;;;;4991079;28;20195;-77
2022/10/31 02:04:39;;;;;;;5.28;3.97;;;12.60;99.90;;;;;;4995790;28;20190;-77
2022/10/31 02:07:10;;;;;;;4.82;4.15;;;12.20;99.90;;;;;;4999233;28;20191;-77
2022/10/31 02:09:37;;;;;;;4.25;3.53;;;12.50;99.90;;;;;;5002780;28;20204;-77
2022/10/31 02:12:04;;;;;;;7.15;4.43;;;12.20;99.90;;;;;;4992040;28;20182;-77
2022/10/31 02:14:30;;;;;;;5.65;3.67;;;12.40;99.90;;;;;;5000460;28;20205;-77
2022/10/31 02:16:56;;;;;;;10.85;4.30;;;12.60;99.90;;;;;;4993275;28;20189;-77
2022/10/31 02:19:48;;;;;;;5.43;3.50;;;13.00;99.90;;;;;;4988283;28;20254;-76
2022/10/31 02:22:36;;;;;;;6.93;4.00;;;12.70;99.90;;;;;;4992746;28;20189;-76
2022/10/31 02:25:06;;;;;;;7.28;4.40;;;12.40;99.90;;;;;;5010604;28;20179;-77
2022/10/31 02:27:49;;;;;;;4.82;3.60;;;12.60;99.90;;;;;;5009918;28;20264;-77
2022/10/31 02:30:18;;;;;;;5.82;4.47;;;12.40;99.90;;;;;;5011033;28;20276;-77
2022/10/31 02:33:06;;;;;;;7.03;5.00;;;12.60;99.90;;;;;;4999940;28;20199;-77
2022/10/31 02:36:10;;;;;;;9.40;3.83;;;12.00;99.90;;;;;;4987105;28;20189;-78
2022/10/31 02:38:56;;;;;;;5.07;4.57;;;11.60;99.90;;;;;;4988002;28;20321;-77
2022/10/31 02:41:28;;;;;;;6.22;4.45;;;12.20;99.90;;;;;;4992766;28;20207;-77
2022/10/31 02:44:14;;;;;;;4.68;4.15;;;12.60;99.90;;;;;;4995559;28;20191;-77
2022/10/31 02:46:45;;;;;;;4.20;3.80;;;12.10;99.90;;;;;;5000250;28;20183;-78
2022/10/31 02:49:35;;;;;;;6.53;5.47;;;12.20;99.90;;;;;;4998847;28;20202;-78
2022/10/31 02:52:01;;;;;;;5.65;4.00;;;12.00;99.90;;;;;;4996549;28;20195;-78
2022/10/31 02:54:28;;;;;;;7.07;4.40;;;11.90;99.90;;;;;;4989492;28;20240;-78
2022/10/31 02:57:02;;;;;;;4.88;3.70;;;12.30;99.90;;;;;;4995371;28;20187;-77
2022/10/31 02:59:31;;;;;;;4.57;3.90;;;12.30;99.90;;;;;;5004236;28;20587;-78
2022/10/31 03:02:29;;;;;;;5.18;4.47;;;12.10;99.90;;;;;;4995297;28;20186;-78
2022/10/31 03:05:07;;;;;;;5.05;4.03;;;12.10;99.90;;;;;;4994534;28;20202;-77
2022/10/31 03:07:55;;;;;;;6.82;3.95;;;12.20;99.90;;;;;;4993993;28;20288;-77
2022/10/31 03:10:53;;;;;;;4.85;3.75;;;11.80;99.90;;;;;;4996827;28;20180;-77
2022/10/31 03:13:19;;;;;;;7.53;3.90;;;12.20;99.90;;;;;;4999994;28;20206;-78
2022/10/31 03:15:48;;;;;;;5.50;4.00;;;12.80;99.90;;;;;;4997494;28;20194;-78
2022/10/31 03:18:22;;;;;;;5.53;4.05;;;12.20;99.90;;;;;;4990912;28;20206;-78
2022/10/31 03:21:13;;;;;;;6.63;4.25;;;12.00;99.90;;;;;;5002017;28;20201;-77
2022/10/31 03:23:40;;;;;;;5.88;4.30;;;12.00;99.90;;;;;;4991335;28;20179;-78
2022/10/31 03:26:09;;;;;;;4.78;3.70;;;12.10;99.90;;;;;;4994808;28;20201;-77
2022/10/31 03:28:43;;;;;;;5.45;4.28;;;11.80;99.90;;;;;;4992554;28;20210;-77
2022/10/31 03:31:10;;;;;;;7.20;4.72;;;11.70;99.90;;;;;;4996077;28;20186;-77
2022/10/31 03:33:38;;;;;;;5.50;4.00;;;12.20;99.90;;;;;;4987601;28;20195;-77
2022/10/31 03:36:05;;;;;;;6.60;4.20;;;12.30;99.90;;;;;;4988854;28;20193;-77
2022/10/31 03:38:33;;;;;;;6.65;5.07;;;11.90;99.90;;;;;;4998642;28;20229;-77
2022/10/31 03:41:03;;;;;;;6.05;4.20;;;12.20;99.90;;;;;;4994588;28;20233;-76
2022/10/31 03:43:32;;;;;;;5.10;3.60;;;12.10;99.90;;;;;;4989503;28;20214;-78
2022/10/31 03:45:58;;;;;;;6.13;4.30;;;12.10;99.90;;;;;;4992291;28;20674;-77
2022/10/31 03:48:25;;;;;;;8.10;4.90;;;11.90;99.90;;;;;;4992210;28;20267;-77
2022/10/31 03:51:06;;;;;;;4.95;4.25;;;11.70;99.90;;;;;;5007830;28;20558;-78
2022/10/31 03:53:40;;;;;;;10.13;3.97;;;11.70;99.90;;;;;;4998507;28;20557;-77
2022/10/31 03:56:12;;;;;;;7.53;4.32;;;11.90;99.90;;;;;;4991297;28;20190;-77
2022/10/31 03:58:47;;;;;;;5.80;4.07;;;11.80;99.90;;;;;;4986102;28;20214;-76
2022/10/31 04:01:16;;;;;;;7.55;4.93;;;11.70;99.90;;;;;;5011424;28;20212;-77
2022/10/31 04:03:44;;;;;;;4.82;4.40;;;12.00;99.90;;;;;;4992566;28;20253;-77
2022/10/31 04:06:14;;;;;;;6.30;4.43;;;11.70;99.90;;;;;;4995988;28;20183;-77
2022/10/31 04:08:54;;;;;;;6.80;4.13;;;11.80;99.90;;;;;;4996988;28;20259;-77
2022/10/31 04:11:24;;;;;;;5.55;4.20;;;11.70;99.90;;;;;;4989529;28;20183;-77
2022/10/31 04:13:52;;;;;;;7.95;4.88;;;11.70;99.90;;;;;;5002124;28;20643;-77
2022/10/31 04:16:19;;;;;;;5.75;4.70;;;12.30;99.90;;;;;;4996887;28;20268;-76
2022/10/31 04:18:44;;;;;;;4.95;4.28;;;11.80;99.90;;;;;;4990582;28;20301;-76
2022/10/31 04:21:10;;;;;;;4.53;4.13;;;11.80;99.90;;;;;;4999222;28;20312;-76
2022/10/31 04:23:36;;;;;;;5.90;4.80;;;12.00;99.90;;;;;;4994046;28;20186;-78
2022/10/31 04:26:01;;;;;;;6.80;5.80;;;11.90;99.90;;;;;;4996424;28;20175;-77
2022/10/31 04:28:27;;;;;;;6.70;4.60;;;11.70;99.90;;;;;;5002129;28;20463;-77
2022/10/31 04:30:53;;;;;;;8.70;4.80;;;11.70;99.90;;;;;;4990053;28;20332;-78
2022/10/31 04:33:19;;;;;;;7.33;4.53;;;11.60;99.90;;;;;;4983689;28;20197;-77
2022/10/31 04:35:44;;;;;;;6.33;4.40;;;11.90;99.90;;;;;;4992190;28;20218;-77
2022/10/31 04:38:10;;;;;;;9.20;4.97;;;11.70;99.90;;;;;;4995259;28;20943;-78
2022/10/31 04:40:36;;;;;;;5.10;4.60;;;11.70;99.90;;;;;;4991623;28;20248;-77
2022/10/31 04:43:01;;;;;;;4.77;4.20;;;12.00;99.90;;;;;;5001076;28;20547;-78
2022/10/31 04:45:27;;;;;;;10.50;4.97;;;12.10;99.90;;;;;;5007406;28;20659;-78
2022/10/31 04:47:52;;;;;;;7.13;4.50;;;11.80;99.90;;;;;;4999156;28;20197;-77
2022/10/31 04:50:18;;;;;;;5.87;4.43;;;11.70;99.90;;;;;;4988986;28;20187;-77
2022/10/31 04:52:45;;;;;;;6.53;4.70;;;12.30;99.90;;;;;;4994653;28;20195;-77
2022/10/31 04:55:13;;;;;;;5.97;4.40;;;11.70;99.90;;;;;;4991227;28;20662;-77
2022/10/31 04:57:42;;;;;;;6.45;4.63;;;11.80;99.90;;;;;;4991914;28;20202;-77
2022/10/31 05:00:09;;;;;;;4.55;4.13;;;11.90;99.90;;;;;;4990779;28;20222;-78
2022/10/31 05:02:52;;;;;;;7.05;4.28;;;11.90;99.90;;;;;;4981656;28;20188;-78
2022/10/31 05:05:20;;;;;;;6.80;5.30;;;11.80;99.90;;;;;;4998784;28;20539;-77
2022/10/31 05:07:47;;;;;;;7.35;4.93;;;11.90;99.90;;;;;;4992204;28;20647;-76
2022/10/31 05:10:16;;;;;;;7.40;4.30;;;11.90;99.90;;;;;;5002626;28;20185;-76
2022/10/31 05:12:56;;;;;;;5.70;4.47;;;11.50;99.90;;;;;;4993068;28;20188;-76
2022/10/31 05:15:24;;;;;;;6.18;4.72;;;11.30;99.90;;;;;;4995839;28;20256;-76
2022/10/31 05:17:50;;;;;;;6.20;4.53;;;11.70;99.90;;;;;;4990074;28;20213;-76
2022/10/31 05:20:17;;;;;;;7.90;5.25;;;11.60;99.90;;;;;;4997368;28;20641;-76
2022/10/31 05:22:44;;;;;;;4.45;3.92;;;11.50;99.90;;;;;;4996822;28;20186;-76
2022/10/31 05:25:10;;;;;;;6.00;4.95;;;11.90;99.90;;;;;;4990583;28;20717;-76
2022/10/31 05:27:40;;;;;;;7.05;4.68;;;11.50;99.90;;;;;;4999024;28;20276;-76
2022/10/31 05:30:06;;;;;;;5.95;4.65;;;11.80;99.90;;;;;;5017876;28;20280;-75
2022/10/31 05:32:40;;;;;;;8.30;5.00;;;11.50;99.90;;;;;;4993698;28;20197;-76
2022/10/31 05:35:08;;;;;;;7.38;5.65;;;11.30;99.90;;;;;;4995189;28;20239;-76
2022/10/31 05:37:35;;;;;;;5.15;4.60;;;11.10;99.90;;;;;;4986504;28;20662;-77
2022/10/31 05:40:01;;;;;;;5.90;4.50;;;11.10;99.90;;;;;;4989731;28;20228;-77
2022/10/31 05:42:26;;;;;;;4.90;4.40;;;11.10;99.90;;;;;;4992781;28;20198;-77
2022/10/31 05:44:52;;;;;;;7.17;4.70;;;11.20;99.90;;;;;;4998865;28;20203;-77
2022/10/31 05:47:18;;;;;;;6.00;4.60;;;11.60;99.90;;;;;;4988959;28;20227;-76
2022/10/31 05:49:43;;;;;;;7.30;5.37;;;11.60;99.90;;;;;;5007227;28;20209;-77
2022/10/31 05:52:09;;;;;;;7.73;5.67;;;11.30;99.90;;;;;;4988438;28;20185;-76
2022/10/31 05:54:34;;;;;;;5.27;4.40;;;12.50;99.90;;;;;;4994714;28;20694;-78
2022/10/31 05:57:00;;;;;;;5.40;4.50;;;11.30;99.90;;;;;;4984753;28;20191;-76
2022/10/31 05:59:25;;;;;;;7.97;5.37;;;11.40;99.90;;;;;;4987225;28;20240;-76
2022/10/31 06:01:51;;;;;;;8.17;5.50;;;11.50;99.90;;;;;;4983121;28;20217;-80
2022/10/31 06:04:16;;;;;;;7.87;5.47;;;11.40;99.90;;;;;;4987261;28;20182;-76
2022/10/31 06:06:42;;;;;;;7.00;4.90;;;11.40;99.90;;;;;;4984974;28;20205;-77
2022/10/31 06:09:07;;;;;;;6.00;4.80;;;11.40;99.90;;;;;;4987029;28;20205;-76
2022/10/31 06:11:33;;;;;;;6.53;5.80;;;11.20;99.90;;;;;;4986659;28;20193;-76
2022/10/31 06:13:58;;;;;;;7.80;5.17;;;11.40;99.90;;;;;;4987331;28;20200;-76
2022/10/31 06:16:24;;;;;;;7.27;6.43;;;11.30;99.90;;;;;;4977830;28;20192;-77
2022/10/31 06:18:49;;;;;;;9.23;5.70;;;11.60;99.90;;;;;;4980641;28;20209;-76
2022/10/31 06:21:15;;;;;;;7.07;5.53;;;11.50;99.90;;;;;;4984798;28;20292;-76
2022/10/31 06:23:40;;;;;;;8.10;5.70;;;11.60;99.90;;;;;;4982250;28;20579;-77
2022/10/31 06:26:06;;;;;;;10.23;5.33;;;11.40;99.90;;;;;;4985431;28;20198;-77
2022/10/31 06:28:31;;;;;;;11.20;5.60;;;11.90;99.90;;;;;;4982173;28;20209;-76
2022/10/31 06:30:57;;;;;;;8.80;5.97;;;12.20;99.90;;;;;;4986474;28;20717;-77
2022/10/31 06:33:22;;;;;;;11.87;4.80;;;12.00;99.90;;;;;;4992104;28;20673;-76
2022/10/31 06:35:48;;;;;;;11.17;4.90;;;11.40;99.90;;;;;;4994758;28;20243;-76
2022/10/31 06:38:14;;;;;;;10.40;5.60;;;11.50;99.90;;;;;;4992937;28;20299;-77
2022/10/31 06:40:41;;;;;;;10.00;5.53;;;11.90;99.90;;;;;;4997139;28;20218;-76
2022/10/31 06:43:06;;;;;;;7.78;5.10;;;11.60;99.90;;;;;;4994619;28;20548;-76
2022/10/31 06:45:32;;;;;;;11.90;5.97;;;11.70;99.90;;;;;;4991720;28;20187;-76
2022/10/31 06:47:57;;;;;;;11.00;5.50;;;11.80;99.90;;;;;;4992611;28;20182;-77
2022/10/31 06:50:23;;;;;;;10.23;5.50;;;11.50;99.90;;;;;;4992146;28;20317;-77
2022/10/31 06:52:53;;;;;;;7.17;6.30;;;11.30;99.90;;;;;;4995582;28;20280;-77
2022/10/31 06:55:22;;;;;;;9.88;6.70;;;11.40;99.90;;;;;;4992583;28;20199;-77
2022/10/31 06:58:09;;;;;;;7.32;6.40;;;11.60;99.90;;;;;;4992674;28;20216;-77
2022/10/31 07:00:35;;;;;;;7.95;5.45;;;11.60;99.90;;;;;;4985703;28;20717;-77
2022/10/31 07:03:06;;;;;;;7.97;5.30;;;11.90;99.90;;;;;;4985045;28;20183;-76
2022/10/31 07:05:32;;;;;;;9.40;5.10;;;12.00;99.90;;;;;;4999483;28;20186;-77
2022/10/31 07:08:02;;;;;;;6.17;5.57;;;11.80;99.90;;;;;;4993484;28;20184;-77
2022/10/31 07:10:31;;;;;;;7.03;5.80;;;11.80;99.90;;;;;;4997520;28;20434;-78
2022/10/31 07:13:01;;;;;;;10.15;6.40;;;12.10;99.90;;;;;;4998951;28;20676;-76
2022/10/31 07:15:28;;;;;;;7.40;5.65;;;12.00;99.90;;;;;;4994869;28;20200;-78
2022/10/31 07:17:59;;;;;;;7.07;6.07;;;11.60;99.90;;;;;;4996505;28;20221;-77
2022/10/31 07:20:24;;;;;;;9.13;4.72;;;12.40;99.90;;;;;;4999820;28;20219;-78
2022/10/31 07:22:50;;;;;;;13.10;5.77;;;12.30;99.90;;;;;;4991264;28;20264;-79
2022/10/31 07:25:15;;;;;;;9.40;5.67;;;12.40;99.90;;;;;;5004529;28;20175;-79
2022/10/31 07:27:42;;;;;;;8.70;5.70;;;12.30;99.90;;;;;;4992156;28;20217;-78
2022/10/31 07:30:10;;;;;;;6.43;5.20;;;12.30;99.90;;;;;;4989264;28;20191;-82
2022/10/31 07:32:39;;;;;;;9.68;5.95;;;12.60;99.90;;;;;;4994955;28;20667;-79
2022/10/31 07:35:06;;;;;;;10.63;5.88;;;12.60;99.90;;;;;;4997416;28;20193;-79
2022/10/31 07:37:32;;;;;;;8.38;5.28;;;12.60;99.90;;;;;;4989664;28;20563;-80
2022/10/31 07:39:58;;;;;;;9.30;5.50;;;12.70;99.90;;;;;;4984238;28;20291;-81
2022/10/31 07:42:23;;;;;;;10.00;5.80;;;12.90;99.90;;;;;;4991255;28;20183;-86
2022/10/31 07:44:49;;;;;;;7.93;5.60;;;13.50;99.90;;;;;;5001198;28;20243;-85
2022/10/31 07:47:14;;;;;;;7.53;6.00;;;12.90;99.90;;;;;;4995054;28;20213;-83
2022/10/31 07:49:40;;;;;;;7.97;6.40;;;13.20;99.90;;;;;;4991073;28;20277;-81
2022/10/31 07:52:05;;;;;;;10.33;6.03;;;12.80;99.90;;;;;;4991970;28;20675;-81
2022/10/31 07:54:31;;;;;;;7.67;6.20;;;13.00;99.90;;;;;;5009350;28;20268;-82
2022/10/31 07:56:56;;;;;;;7.97;5.77;;;13.00;99.90;;;;;;5000094;28;20265;-83
2022/10/31 07:59:22;;;;;;;9.77;6.30;;;13.10;99.90;;;;;;5009622;28;20297;-82
2022/10/31 08:01:47;;;;;;;9.00;6.57;;;13.40;99.90;;;;;;4988025;28;20223;-81
2022/10/31 08:04:13;;;;;;;8.20;6.23;;;12.90;99.90;;;;;;4988263;28;20559;-82
2022/10/31 08:06:38;;;;;;;6.83;6.23;;;13.60;99.90;;;;;;4987297;28;20190;-85
2022/10/31 08:09:04;;;;;;;8.33;5.93;;;13.60;99.90;;;;;;5010749;28;20206;-84
2022/10/31 08:11:29;;;;;;;10.20;8.40;;;13.40;99.90;;;;;;4997696;28;20679;-80
2022/10/31 08:13:55;;;;;;;6.27;5.63;;;13.40;99.90;;;;;;4993872;28;20188;-80
2022/10/31 08:16:20;;;;;;;7.63;6.07;;;13.80;99.90;;;;;;4998430;28;20279;-80
2022/10/31 08:18:47;;;;;;;10.33;5.90;;;13.80;99.90;;;;;;4997346;28;20408;-83
2022/10/31 08:21:12;;;;;;;6.47;5.38;;;13.80;99.90;;;;;;4997006;28;20207;-85
2022/10/31 08:23:38;;;;;;;7.43;5.93;;;14.30;99.90;;;;;;5010561;28;21119;-84
2022/10/31 08:26:05;;;;;;;7.20;5.57;;;14.00;99.90;;;;;;5010496;28;20690;-81
2022/10/31 08:28:31;;;;;;;5.97;5.30;;;14.00;99.90;;;;;;4996766;28;20204;-83
2022/10/31 08:30:58;;;;;;;10.33;5.97;;;14.70;99.90;;;;;;4988042;28;20184;-83
2022/10/31 08:33:24;;;;;;;7.78;6.63;;;14.60;99.90;;;;;;4986551;28;20439;-81
2022/10/31 08:35:49;;;;;;;6.77;5.93;;;15.10;99.90;;;;;;4988314;28;20664;-77
2022/10/31 08:38:15;;;;;;;12.60;6.90;;;15.20;99.90;;;;;;4984510;28;20849;-78
2022/10/31 08:40:41;;;;;;;8.50;6.60;;;15.40;99.90;;;;;;4988361;28;20211;-77
2022/10/31 08:43:14;;;;;;;7.10;5.40;;;15.30;99.90;;;;;;4986491;28;20187;-78
2022/10/31 08:45:40;;;;;;;8.93;5.55;;;15.20;99.90;;;;;;4982092;28;20200;-79
2022/10/31 08:48:11;;;;;;;11.18;6.60;;;16.50;99.90;;;;;;4985477;28;20207;-79
2022/10/31 08:50:37;;;;;;;10.98;8.02;;;15.20;99.90;;;;;;4984507;28;20186;-77
2022/10/31 08:53:05;;;;;;;8.02;6.40;;;15.50;99.90;;;;;;4985978;28;20179;-77
2022/10/31 08:55:32;;;;;;;6.80;5.72;;;15.80;99.90;;;;;;4982374;28;20535;-77
2022/10/31 08:57:58;;;;;;;19.77;14.55;;;15.90;99.90;;;;;;4984856;28;20188;-77
2022/10/31 09:00:23;;;;;;;9.67;8.10;;;16.20;99.90;;;;;;4981697;28;20574;-78
2022/10/31 09:02:56;;;;;;;8.50;6.33;;;16.20;99.90;;;;;;4991938;28;20390;-78
2022/10/31 09:05:21;;;;;;;9.18;7.93;;;16.40;99.90;;;;;;4994508;28;20438;-79
2022/10/31 09:07:47;;;;;;;9.17;7.43;;;16.20;99.90;;;;;;4997094;28;20184;-79
2022/10/31 09:10:12;;;;;;;8.07;7.10;;;16.10;99.90;;;;;;4998542;28;20262;-79
2022/10/31 09:12:38;;;;;;;14.57;7.53;;;16.40;99.90;;;;;;4997102;28;20278;-79
2022/10/31 09:15:06;;;;;;;8.17;6.40;;;16.60;99.90;;;;;;5001377;28;20191;-79
2022/10/31 09:17:32;;;;;;;7.95;6.50;;;16.00;99.90;;;;;;4992935;28;20645;-79
2022/10/31 09:19:57;;;;;;;10.87;6.20;;;16.50;99.90;;;;;;4995883;28;20268;-79
2022/10/31 09:22:23;;;;;;;9.27;6.80;;;16.70;99.90;;;;;;4998108;28;20179;-78
2022/10/31 09:24:48;;;;;;;8.90;7.40;;;16.50;99.90;;;;;;4994189;28;20206;-79
2022/10/31 09:27:14;;;;;;;9.80;7.20;;;16.50;99.90;;;;;;4997215;28;20187;-78
2022/10/31 09:29:39;;;;;;;9.27;7.30;;;16.80;99.90;;;;;;4998270;28;20219;-80
2022/10/31 09:32:05;;;;;;;9.20;6.97;;;17.10;99.90;;;;;;4997422;28;20186;-79
2022/10/31 09:34:30;;;;;;;9.63;7.00;;;16.50;99.90;;;;;;4994270;28;20362;-79
2022/10/31 09:36:56;;;;;;;11.47;7.50;;;17.10;99.90;;;;;;4992673;28;20194;-79
2022/10/31 09:39:21;;;;;;;7.57;6.40;;;16.60;99.90;;;;;;4988454;28;20274;-79
2022/10/31 09:41:56;;;;;;;11.47;6.87;;;16.60;99.90;;;;;;4993356;28;20215;-79
2022/10/31 09:44:26;;;;;;;15.98;8.32;;;16.90;99.90;;;;;;4990229;28;20215;-79
2022/10/31 09:47:03;;;;;;;10.88;7.70;;;16.90;99.90;;;;;;4994422;28;20187;-79
2022/10/31 09:50:07;;;;;;;8.07;7.20;;;17.40;99.90;;;;;;4996780;28;20198;-79
2022/10/31 09:52:36;;;;;;;9.48;7.57;;;17.10;99.90;;;;;;4992458;28;20392;-79
2022/10/31 09:55:15;;;;;;;10.30;7.85;;;17.20;99.90;;;;;;4978458;28;20214;-78
2022/10/31 09:57:42;;;;;;;12.75;8.07;;;17.20;99.90;;;;;;4987324;28;20183;-79
2022/10/31 10:00:16;;;;;;;10.95;8.52;;;17.40;99.90;;;;;;4992781;28;20214;-78
2022/10/31 10:03:18;;;;;;;13.13;11.38;;;17.30;99.90;;;;;;4996588;28;20798;-79
2022/10/31 10:05:57;;;;;;;9.20;7.97;;;17.60;99.90;;;;;;4996881;28;20179;-79
2022/10/31 10:08:26;;;;;;;12.45;8.93;;;17.40;99.90;;;;;;4995484;28;20742;-79
2022/10/31 10:11:02;;;;;;;10.05;8.95;;;17.40;99.90;;;;;;4991844;28;20663;-79
2022/10/31 10:14:01;;;;;;;11.00;9.90;;;17.50;99.90;;;;;;4993916;28;20187;-79
2022/10/31 10:16:41;;;;;;;21.55;10.25;;;17.90;99.90;;;;;;5000588;28;20249;-79
2022/10/31 10:19:29;;;;;;;8.55;7.57;;;18.20;99.90;;;;;;4990713;28;20370;-79
2022/10/31 10:22:31;;;;;;;10.95;8.25;;;17.70;99.90;;;;;;5000618;28;20293;-79
2022/10/31 10:25:15;;;;;;;15.68;12.45;;;17.80;99.90;;;;;;4983926;28;20192;-79
2022/10/31 10:27:54;;;;;;;10.93;8.00;;;17.90;99.90;;;;;;4986642;28;20187;-79
2022/10/31 10:30:22;;;;;;;11.10;9.70;;;18.10;99.90;;;;;;4997297;28;20659;-80
2022/10/31 10:32:55;;;;;;;11.50;8.90;;;18.20;99.90;;;;;;4995460;28;20215;-80
2022/10/31 10:35:34;;;;;;;12.02;8.50;;;18.60;99.90;;;;;;4985435;28;20191;-79
2022/10/31 10:38:11;;;;;;;10.00;7.93;;;18.70;99.90;;;;;;4993996;28;20272;-79
2022/10/31 10:40:37;;;;;;;9.32;8.30;;;18.40;99.90;;;;;;4996697;28;20217;-79
2022/10/31 10:43:23;;;;;;;11.35;8.85;;;18.20;99.90;;;;;;5003013;28;20174;-79
2022/10/31 10:49:19;;;;;;;12.82;9.88;;;18.20;99.90;;;;;;4990337;28;20212;-80
2022/10/31 10:52:02;;;;;;;9.07;8.18;;;18.90;99.90;;;;;;5005772;28;20198;-80
2022/10/31 10:54:46;;;;;;;11.30;8.23;;;18.40;99.90;;;;;;4993936;28;20596;-79
2022/10/31 10:57:27;;;;;;;9.75;8.75;;;18.50;99.90;;;;;;4993349;28;20557;-80
2022/10/31 10:59:53;;;;;;;12.45;9.70;;;18.40;99.90;;;;;;4993080;28;20494;-80
2022/10/31 11:02:31;;;;;;;11.57;9.50;;;19.00;99.90;;;;;;4996678;28;20738;-80
2022/10/31 11:04:59;;;;;;;9.95;8.60;;;19.00;99.90;;;;;;4992697;28;20191;-80
2022/10/31 11:07:36;;;;;;;11.10;8.13;;;18.20;99.90;;;;;;4999824;28;20265;-79
2022/10/31 11:10:13;;;;;;;8.75;7.35;;;19.00;99.90;;;;;;4990398;28;20199;-78
2022/10/31 11:12:40;;;;;;;9.77;7.43;;;18.50;99.90;;;;;;5004753;28;20630;-79
2022/10/31 11:15:20;;;;;;;11.07;7.82;;;18.90;99.90;;;;;;5003732;28;20198;-78
2022/10/31 11:17:50;;;;;;;9.45;8.55;;;19.10;99.90;;;;;;5007825;28;20670;-79
2022/10/31 11:20:15;;;;;;;7.90;6.85;;;19.00;99.90;;;;;;4992627;28;20564;-79
2022/10/31 11:22:46;;;;;;;9.97;7.40;;;18.80;99.90;;;;;;5005086;28;21618;-79
2022/10/31 11:25:23;;;;;;;10.00;7.40;;;18.70;99.90;;;;;;5011343;28;20175;-79
2022/10/31 11:28:08;;;;;;;9.82;7.97;;;19.00;99.90;;;;;;5006737;28;20193;-79
2022/10/31 11:30:47;;;;;;;10.57;8.40;;;18.70;99.90;;;;;;5002938;28;20193;-79
2022/10/31 11:33:20;;;;;;;7.80;7.00;;;18.90;99.90;;;;;;4990085;28;20184;-79
2022/10/31 11:35:47;;;;;;;12.80;8.52;;;19.00;99.90;;;;;;4996394;28;20202;-79
2022/10/31 11:38:22;;;;;;;8.70;7.90;;;19.10;99.90;;;;;;4983470;28;20212;-79
2022/10/31 11:41:12;;;;;;;10.75;7.55;;;19.20;99.90;;;;;;4985007;28;20789;-80
2022/10/31 11:43:39;;;;;;;11.48;8.45;;;19.30;99.90;;;;;;5003860;28;20621;-78
2022/10/31 11:46:17;;;;;;;9.07;8.15;;;19.60;99.90;;;;;;4986146;28;20274;-79
2022/10/31 11:48:48;;;;;;;9.95;7.80;;;19.70;99.90;;;;;;4993509;28;20290;-79
2022/10/31 11:51:22;;;;;;;12.57;8.88;;;19.30;99.90;;;;;;4998881;28;20685;-78
2022/10/31 11:53:52;;;;;;;9.95;8.98;;;19.70;99.90;;;;;;4995926;28;20203;-78
2022/10/31 11:56:18;;;;;;;11.40;8.35;;;19.50;99.90;;;;;;4988988;28;20235;-78
2022/10/31 11:58:54;;;;;;;11.20;8.20;;;19.40;99.90;;;;;;4992575;28;20211;-78
2022/10/31 12:01:25;;;;;;;10.90;8.35;;;19.60;99.90;;;;;;4987976;28;20218;-79
2022/10/31 12:04:05;;;;;;;9.90;7.90;;;18.60;99.90;;;;;;4995958;28;20544;-79
2022/10/31 12:06:42;;;;;;;11.32;8.52;;;19.50;99.90;;;;;;4996878;28;20202;-78
2022/10/31 12:09:32;;;;;;;10.05;8.65;;;19.40;99.90;;;;;;4993046;28;20202;-79
2022/10/31 12:12:33;;;;;;;13.43;7.93;;;19.50;99.90;;;;;;4994594;28;20261;-79
2022/10/31 12:15:18;;;;;;;11.35;8.05;;;19.40;99.90;;;;;;4993909;28;20210;-79
2022/10/31 12:17:58;;;;;;;9.82;8.82;;;19.60;99.90;;;;;;4988431;28;20191;-79
2022/10/31 12:20:32;;;;;;;11.70;9.10;;;19.60;99.90;;;;;;4997419;28;20214;-78
2022/10/31 12:23:14;;;;;;;11.05;9.20;;;19.60;99.90;;;;;;4994079;28;20233;-79
2022/10/31 12:26:03;;;;;;;14.32;8.40;;;19.60;99.90;;;;;;5000321;28;20233;-79
2022/10/31 12:28:50;;;;;;;8.95;7.97;;;19.60;99.90;;;;;;4990772;28;20206;-79
2022/10/31 12:31:50;;;;;;;10.85;8.75;;;19.80;99.90;;;;;;4995576;28;20322;-78
2022/10/31 12:34:19;;;;;;;9.30;8.40;;;20.00;99.90;;;;;;4976078;28;20193;-78
2022/10/31 12:37:15;;;;;;;14.85;9.57;;;20.10;99.90;;;;;;4994090;28;20294;-78
2022/10/31 12:39:58;;;;;;;14.23;10.05;;;20.30;99.90;;;;;;4996536;28;20219;-80
2022/10/31 12:42:50;;;;;;;10.75;9.27;;;20.00;99.90;;;;;;4997098;28;20195;-79
2022/10/31 12:45:58;;;;;;;10.20;9.15;;;20.00;99.90;;;;;;4998371;28;20702;-80
2022/10/31 12:48:42;;;;;;;10.32;9.32;;;20.00;99.90;;;;;;4951244;28;20286;-80
2022/10/31 12:51:37;;;;;;;11.27;9.20;;;19.90;99.90;;;;;;4984663;28;20195;-80
2022/10/31 12:54:36;;;;;;;9.50;7.68;;;19.90;99.90;;;;;;4980717;28;20576;-80
2022/10/31 12:57:23;;;;;;;10.25;8.50;;;19.80;99.90;;;;;;4990048;28;20261;-79
2022/10/31 12:59:55;;;;;;;10.10;8.75;;;19.90;99.90;;;;;;5015529;28;20210;-80
2022/10/31 13:02:41;;;;;;;13.02;8.90;;;20.30;99.90;;;;;;4994905;28;20703;-80
2022/10/31 13:05:33;;;;;;;9.88;7.40;;;19.80;99.90;;;;;;4987856;28;20190;-79
2022/10/31 13:08:20;;;;;;;11.05;8.68;;;19.70;99.90;;;;;;4992262;28;20258;-77